Weather at Dorans Airstrip

Public forecast

Using degrees Celsius for public forecast. Weather courtesy of forecast.io.

Closest aviation weather report (METAR) to Dorans Airstrip

Closest report is Casement Air Base, 45.8 nm (84.9 km) ESE.

2024/04/22 13:00 (retrieved 26 minutes ago)

EIME 221300Z 33006KT 9999 SCT018 BKN020 BKN023 11/07 Q1030

Closest aviation forecast (TAF) to Dorans Airstrip

Closest forecast is Ireland West Knock Airport, 46.8 nm (86.7 km) WNW.

2024/04/22 12:11 (retrieved 1 hour ago)

TAF EIKN 221100Z 2212/2312 35011KT 9999 BKN023 PROB30 TEMPO 2212/2219 35015G25KT PROB40 TEMPO 2220/2309 BKN008 PROB30 TEMPO 2303/2307 4000 -DZ PROB40 TEMPO 2310/2312 35015G25KT